Time;durP1;ratioP1;P1;durP2;ratioP2;P2;SDS_P1;SDS_P2;PMS_P1;PMS_P2;Temp;Humidity;BMP_temperature;BMP_pressure;BME280_temperature;BME280_humidity;BME280_pressure;Samples;Min_cycle;Max_cycle;Signal;HPM_P1;HPM_P2
2024/01/16 00:00:47;;;;;;;;;7.00;6.00;;;;;5.28;100.00;97044.38;5940457;29;96283;-57
2024/01/16 00:03:50;;;;;;;;;7.00;6.80;;;;;5.12;100.00;97040.56;5941310;29;96354;-57
2024/01/16 00:06:53;;;;;;;;;5.80;5.40;;;;;4.86;100.00;97041.00;5943117;29;96337;-57
2024/01/16 00:09:58;;;;;;;;;8.50;7.00;;;;;4.86;100.00;97050.84;5921477;29;96608;-57
2024/01/16 00:13:01;;;;;;;;;7.00;6.20;;;;;4.82;100.00;97055.84;5930080;29;96290;-57
2024/01/16 00:16:05;;;;;;;;;6.00;6.00;;;;;4.89;100.00;97061.88;5943350;29;96270;-57
2024/01/16 00:19:08;;;;;;;;;8.50;7.00;;;;;4.93;100.00;97067.59;5946439;29;96277;-57
2024/01/16 00:22:11;;;;;;;;;6.60;6.60;;;;;4.96;100.00;97080.47;5945692;29;96316;-56
2024/01/16 00:25:17;;;;;;;;;8.80;7.80;;;;;5.04;100.00;97067.59;5929995;29;96526;-57
2024/01/16 00:28:20;;;;;;;;;9.00;8.00;;;;;4.94;100.00;97079.88;5932595;29;96359;-57
2024/01/16 00:31:23;;;;;;;;;8.00;7.00;;;;;4.93;100.00;97086.28;5908890;29;98531;-57
2024/01/16 00:34:26;;;;;;;;;7.00;6.00;;;;;4.75;100.00;97061.28;5920635;29;98530;-57
2024/01/16 00:37:29;;;;;;;;;7.67;7.67;;;;;4.88;100.00;97091.50;5931600;29;96412;-57
2024/01/16 00:40:34;;;;;;;;;8.40;8.20;;;;;4.77;100.00;97095.75;5931268;29;96318;-57
2024/01/16 00:43:37;;;;;;;;;9.60;8.00;;;;;4.73;100.00;97090.06;5931283;29;96269;-57
2024/01/16 00:46:40;;;;;;;;;8.60;7.80;;;;;4.83;100.00;97086.84;5932024;29;96701;-57
2024/01/16 00:49:43;;;;;;;;;8.00;7.00;;;;;4.85;100.00;97098.09;5931872;29;96993;-57
2024/01/16 00:52:47;;;;;;;;;11.00;10.00;;;;;4.86;100.00;97105.06;5930342;29;96388;-57
2024/01/16 00:55:52;;;;;;;;;10.00;10.00;;;;;4.74;100.00;97110.38;5930510;29;96755;-57
2024/01/16 00:58:55;;;;;;;;;11.40;11.40;;;;;4.70;100.00;97111.03;5923671;29;97761;-57
2024/01/16 01:01:58;;;;;;;;;8.00;7.60;;;;;4.67;100.00;97115.00;5929880;29;96390;-57
2024/01/16 01:05:01;;;;;;;;;8.00;8.00;;;;;4.62;100.00;97108.72;5930935;29;96896;-57
2024/01/16 01:08:05;;;;;;;;;9.60;8.80;;;;;4.69;100.00;97117.44;5916330;29;97448;-57
2024/01/16 01:11:09;;;;;;;;;11.00;11.00;;;;;4.74;100.00;97134.38;5923707;29;96653;-57
2024/01/16 01:14:12;;;;;;;;;10.00;9.00;;;;;4.79;100.00;97131.03;5931329;29;96328;-57
2024/01/16 01:17:16;;;;;;;;;11.00;11.00;;;;;4.84;100.00;97130.38;5930838;29;96361;-57
2024/01/16 01:20:20;;;;;;;;;12.00;11.00;;;;;4.91;100.00;97142.56;5945369;29;96350;-57
2024/01/16 01:23:23;;;;;;;;;11.60;11.60;;;;;4.99;100.00;97138.75;5915986;29;96282;-57
2024/01/16 01:26:28;;;;;;;;;11.00;10.40;;;;;4.99;100.00;97136.91;5928377;29;97460;-57
2024/01/16 01:29:31;;;;;;;;;14.00;13.25;;;;;5.04;100.00;97133.53;5928999;29;96794;-57
2024/01/16 01:32:35;;;;;;;;;12.00;11.40;;;;;4.97;100.00;97147.00;5909074;29;96510;-55
2024/01/16 01:35:38;;;;;;;;;12.00;11.00;;;;;4.98;100.00;97145.16;5930160;29;96311;-57
2024/01/16 01:38:41;;;;;;;;;11.40;11.00;;;;;4.96;100.00;97134.69;5929887;29;97549;-57
2024/01/16 01:41:46;;;;;;;;;12.50;12.50;;;;;4.98;100.00;97143.31;5930991;29;96308;-57
2024/01/16 01:44:49;;;;;;;;;14.40;12.00;;;;;4.79;100.00;97141.72;5929617;29;96298;-57
2024/01/16 01:47:53;;;;;;;;;12.00;10.00;;;;;4.92;100.00;97154.06;5930169;29;96285;-57
2024/01/16 01:50:56;;;;;;;;;12.00;12.00;;;;;4.90;100.00;97146.28;5930655;29;96445;-57
2024/01/16 01:53:59;;;;;;;;;14.00;13.80;;;;;4.70;100.00;97148.41;5915119;29;96301;-57
2024/01/16 01:57:05;;;;;;;;;14.00;13.00;;;;;4.83;100.00;97164.25;5929661;29;96577;-57
2024/01/16 02:00:08;;;;;;;;;9.00;9.00;;;;;4.84;100.00;97151.72;5930529;29;96438;-57
2024/01/16 02:03:15;;;;;;;;;12.00;11.40;;;;;4.70;100.00;97148.41;5912995;29;95950;-57
2024/01/16 02:06:18;;;;;;;;;13.00;12.00;;;;;4.51;100.00;97146.84;5943490;29;97444;-57
2024/01/16 02:09:21;;;;;;;;;12.20;11.00;;;;;4.45;100.00;97145.88;5934160;29;96775;-57
2024/01/16 02:12:26;;;;;;;;;11.60;10.60;;;;;4.41;100.00;97159.88;5906642;29;96317;-57
2024/01/16 02:15:29;;;;;;;;;10.50;9.00;;;;;4.50;100.00;97156.69;5917378;29;96288;-57
2024/01/16 02:18:32;;;;;;;;;12.00;9.00;;;;;4.40;100.00;97153.72;5929861;29;96405;-57
2024/01/16 02:21:38;;;;;;;;;13.80;13.00;;;;;4.40;100.00;97160.94;5929325;29;96332;-57
2024/01/16 02:24:42;;;;;;;;;13.20;13.00;;;;;4.21;100.00;97128.13;5929945;29;96958;-57
2024/01/16 02:27:46;;;;;;;;;10.75;10.50;;;;;4.42;100.00;97161.53;5928186;29;96371;-57
2024/01/16 02:30:50;;;;;;;;;12.50;10.00;;;;;4.35;100.00;97174.94;5920045;29;96350;-57
2024/01/16 02:33:54;;;;;;;;;13.20;12.20;;;;;4.34;100.00;97176.81;5909533;29;97587;-57
2024/01/16 02:36:57;;;;;;;;;15.00;13.00;;;;;4.33;100.00;97172.50;5929284;29;96831;-57
2024/01/16 02:40:05;;;;;;;;;11.00;9.00;;;;;4.38;100.00;97174.50;5927944;29;98399;-57
2024/01/16 02:43:09;;;;;;;;;12.00;10.40;;;;;4.49;100.00;97183.63;5930131;29;96425;-56
2024/01/16 02:46:12;;;;;;;;;11.00;9.00;;;;;4.54;100.00;97173.91;5925917;29;97352;-57
2024/01/16 02:49:15;;;;;;;;;12.60;11.00;;;;;4.63;100.00;97177.88;5928008;29;96681;-57
2024/01/16 02:52:19;;;;;;;;;10.33;10.00;;;;;4.77;100.00;97182.00;5914009;29;96300;-57
2024/01/16 02:55:23;;;;;;;;;9.00;9.00;;;;;4.69;100.00;97182.28;5922402;29;96341;-57
2024/01/16 02:58:26;;;;;;;;;13.00;11.00;;;;;4.61;100.00;97179.94;5912950;29;96388;-57
2024/01/16 03:01:29;;;;;;;;;11.00;9.50;;;;;4.77;100.00;97174.00;5906628;29;96806;-57
2024/01/16 03:04:32;;;;;;;;;9.60;9.00;;;;;4.85;100.00;97175.50;5918670;29;97063;-57
2024/01/16 03:07:35;;;;;;;;;10.00;10.00;;;;;4.83;100.00;97182.97;5929126;29;96694;-57
2024/01/16 03:10:40;;;;;;;;;9.00;8.20;;;;;4.88;100.00;97192.94;5928048;29;96731;-57
2024/01/16 03:13:43;;;;;;;;;13.40;11.40;;;;;4.89;100.00;97184.69;5943190;29;96580;-57
2024/01/16 03:16:46;;;;;;;;;9.60;9.00;;;;;4.91;100.00;97189.81;5929126;29;96385;-57
2024/01/16 03:19:49;;;;;;;;;11.20;10.20;;;;;4.93;100.00;97195.75;5929115;29;97092;-57
2024/01/16 03:22:53;;;;;;;;;9.00;9.00;;;;;4.93;100.00;97183.22;5921004;29;96333;-57
2024/01/16 03:25:58;;;;;;;;;9.00;9.00;;;;;4.89;100.00;97200.72;5917423;29;96390;-57
2024/01/16 03:29:01;;;;;;;;;10.00;9.00;;;;;5.04;100.00;97203.78;5924501;29;96783;-57
2024/01/16 03:32:05;;;;;;;;;7.00;7.00;;;;;4.93;100.00;97204.59;5916304;29;98469;-57
2024/01/16 03:35:08;;;;;;;;;10.40;10.00;;;;;4.96;100.00;97190.78;5927501;29;96360;-57
2024/01/16 03:38:11;;;;;;;;;9.00;8.00;;;;;5.11;100.00;97204.53;5921765;29;96245;-57
2024/01/16 03:41:16;;;;;;;;;6.60;6.00;;;;;5.03;100.00;97204.84;5928732;29;96660;-57
2024/01/16 03:44:20;;;;;;;;;6.00;6.00;;;;;5.05;100.00;97213.44;5906145;29;96503;-57
2024/01/16 03:47:23;;;;;;;;;7.80;7.00;;;;;4.95;100.00;97180.31;5938795;29;96449;-57
2024/01/16 03:50:26;;;;;;;;;11.00;9.40;;;;;5.20;100.00;97208.50;5927044;29;96335;-57
2024/01/16 03:53:29;;;;;;;;;6.60;6.60;;;;;5.16;100.00;97196.63;5943006;29;96888;-57
2024/01/16 03:56:34;;;;;;;;;7.00;7.00;;;;;5.23;100.00;97201.84;5928789;29;96387;-57
2024/01/16 03:59:38;;;;;;;;;7.00;7.00;;;;;5.32;100.00;97203.19;5920454;29;96306;-57
2024/01/16 04:02:41;;;;;;;;;6.80;5.80;;;;;5.28;100.00;97204.66;5927081;29;96602;-57
2024/01/16 04:05:45;;;;;;;;;8.00;8.00;;;;;5.30;100.00;97210.59;5917616;29;97335;-57
2024/01/16 04:08:48;;;;;;;;;7.60;7.40;;;;;5.33;100.00;97212.00;5922890;29;97012;-57
2024/01/16 04:11:52;;;;;;;;;7.00;7.00;;;;;5.35;100.00;97210.72;5917484;29;96329;-57
2024/01/16 04:14:55;;;;;;;;;7.00;7.00;;;;;5.18;100.00;97201.75;5921183;29;96325;-57
2024/01/16 04:17:58;;;;;;;;;6.00;5.60;;;;;5.26;100.00;97216.63;5922777;29;96534;-57
2024/01/16 04:21:02;;;;;;;;;7.00;7.00;;;;;5.09;100.00;97221.81;5918571;29;96359;-57
2024/01/16 04:24:05;;;;;;;;;7.20;6.60;;;;;4.95;100.00;97223.03;5923196;29;96818;-57
2024/01/16 04:27:11;;;;;;;;;6.00;6.00;;;;;4.64;100.00;97214.19;5926211;29;96975;-57
2024/01/16 04:30:14;;;;;;;;;7.40;7.00;;;;;4.58;100.00;97228.44;5925347;29;96387;-57
2024/01/16 04:33:18;;;;;;;;;8.00;8.00;;;;;4.50;100.00;97236.75;5925317;29;96602;-57
2024/01/16 04:36:21;;;;;;;;;9.00;8.00;;;;;4.41;100.00;97243.41;5924379;29;96379;-57
2024/01/16 04:39:24;;;;;;;;;9.40;8.00;;;;;4.34;100.00;97246.19;5927372;29;96915;-57
2024/01/16 04:42:29;;;;;;;;;8.00;7.40;;;;;4.38;100.00;97249.22;5924232;29;96425;-57
2024/01/16 04:45:32;;;;;;;;;9.00;9.00;;;;;4.31;100.00;97257.28;5923166;29;97589;-57
2024/01/16 04:48:35;;;;;;;;;9.60;9.40;;;;;4.12;100.00;97263.63;5921953;29;96767;-57
2024/01/16 04:51:39;;;;;;;;;8.00;8.00;;;;;4.26;100.00;97266.97;5919543;29;96921;-57
2024/01/16 04:54:42;;;;;;;;;7.00;7.00;;;;;4.20;100.00;97265.22;5921239;29;96270;-57
2024/01/16 04:57:47;;;;;;;;;8.00;7.00;;;;;4.17;100.00;97273.63;5922517;29;96308;-57
2024/01/16 05:00:50;;;;;;;;;7.00;7.00;;;;;4.32;100.00;97266.09;5914588;29;96291;-57
2024/01/16 05:03:53;;;;;;;;;5.75;5.00;;;;;4.33;100.00;97270.41;5907154;29;96385;-57
2024/01/16 05:06:56;;;;;;;;;9.40;8.00;;;;;4.46;100.00;97275.59;5936927;29;96320;-57
2024/01/16 05:09:59;;;;;;;;;9.00;9.00;;;;;4.57;100.00;97298.88;5942653;29;96261;-57
2024/01/16 05:13:04;;;;;;;;;7.00;6.00;;;;;4.53;100.00;97276.34;5943350;29;96309;-57
2024/01/16 05:16:07;;;;;;;;;5.00;4.75;;;;;4.51;100.00;97294.41;5935224;29;96478;-57
2024/01/16 05:19:11;;;;;;;;;7.00;6.00;;;;;4.60;100.00;97308.25;5929267;29;96680;-57
2024/01/16 05:22:14;;;;;;;;;9.00;8.00;;;;;4.72;100.00;97303.84;5938218;29;98352;-57
2024/01/16 05:25:18;;;;;;;;;9.40;8.60;;;;;4.66;100.00;97313.53;5937765;29;96316;-57
2024/01/16 05:28:23;;;;;;;;;10.40;8.40;;;;;4.64;100.00;97320.16;5935408;29;96269;-57
2024/01/16 05:31:26;;;;;;;;;9.25;8.25;;;;;4.77;100.00;97336.00;5942359;29;96550;-57
2024/01/16 05:34:29;;;;;;;;;9.00;7.40;;;;;4.76;100.00;97332.53;5934252;29;96425;-57
2024/01/16 05:37:33;;;;;;;;;9.00;8.00;;;;;4.72;100.00;97319.84;5937275;29;98699;-57
2024/01/16 05:40:36;;;;;;;;;9.60;9.60;;;;;4.77;100.00;97360.84;5949221;29;96746;-57
2024/01/16 05:43:40;;;;;;;;;9.60;9.00;;;;;4.89;100.00;97352.91;5945421;29;96674;-57
2024/01/16 05:46:44;;;;;;;;;9.00;8.00;;;;;4.92;100.00;97352.47;5938610;29;96376;-57
2024/01/16 05:49:47;;;;;;;;;9.00;8.00;;;;;4.90;100.00;97351.88;5943019;29;96358;-57
2024/01/16 05:52:50;;;;;;;;;10.00;9.00;;;;;4.99;100.00;97366.56;5946239;29;96872;-57
2024/01/16 05:55:54;;;;;;;;;9.20;9.00;;;;;4.97;100.00;97374.00;5933028;29;96953;-57
2024/01/16 05:58:58;;;;;;;;;9.00;8.60;;;;;5.00;100.00;97370.03;5939387;29;96450;-57
2024/01/16 06:02:02;;;;;;;;;11.40;11.40;;;;;5.02;100.00;97379.47;5940978;29;96311;-57
2024/01/16 06:05:05;;;;;;;;;8.50;8.50;;;;;5.10;100.00;97381.03;5937207;29;96415;-57
2024/01/16 06:08:09;;;;;;;;;8.20;7.60;;;;;5.16;100.00;97393.50;5936762;29;96084;-57
2024/01/16 06:11:12;;;;;;;;;10.00;9.60;;;;;5.14;100.00;97393.69;5946306;29;96460;-57
2024/01/16 06:14:21;;;;;;;;;7.75;7.00;;;;;5.15;100.00;97389.19;5930096;29;96798;-56
2024/01/16 06:17:25;;;;;;;;;9.00;8.00;;;;;5.32;100.00;97390.22;5917703;29;96480;-56
2024/01/16 06:20:29;;;;;;;;;9.50;9.00;;;;;5.16;100.00;97378.28;5938897;29;96279;-56
2024/01/16 06:23:32;;;;;;;;;11.00;8.80;;;;;5.31;100.00;97396.59;5932093;29;96351;-56
2024/01/16 06:26:35;;;;;;;;;9.00;9.00;;;;;5.32;100.00;97410.78;5934507;29;96333;-56
2024/01/16 06:29:39;;;;;;;;;10.40;9.40;;;;;5.37;100.00;97418.94;5925428;29;96537;-56
2024/01/16 06:32:43;;;;;;;;;9.00;9.00;;;;;5.26;100.00;97435.72;5924422;29;96266;-56
2024/01/16 06:35:46;;;;;;;;;10.50;9.50;;;;;5.06;100.00;97435.94;5936395;29;96326;-56
2024/01/16 06:38:51;;;;;;;;;9.00;8.60;;;;;4.95;100.00;97426.78;5935874;29;96303;-56
2024/01/16 06:41:54;;;;;;;;;11.00;10.00;;;;;5.01;100.00;97438.44;5925588;29;96936;-56
2024/01/16 06:44:59;;;;;;;;;7.60;7.00;;;;;4.92;100.00;97447.78;5920704;29;96620;-57
2024/01/16 06:48:02;;;;;;;;;10.00;9.00;;;;;4.84;100.00;97454.22;5913340;29;96939;-56
2024/01/16 06:51:07;;;;;;;;;11.00;11.00;;;;;4.82;100.00;97455.47;5913695;29;96329;-56
2024/01/16 06:54:11;;;;;;;;;11.00;10.00;;;;;4.69;100.00;97456.44;5900071;29;96351;-56
2024/01/16 06:57:14;;;;;;;;;11.00;11.00;;;;;4.91;100.00;97460.31;5916748;29;96367;-56
2024/01/16 07:00:19;;;;;;;;;13.00;11.00;;;;;4.97;100.00;97467.47;5917011;29;96267;-55
2024/01/16 07:03:22;;;;;;;;;11.00;10.60;;;;;5.03;100.00;97474.59;5915168;29;96398;-56
2024/01/16 07:06:25;;;;;;;;;11.80;11.20;;;;;5.14;100.00;97478.38;5915952;29;96374;-56
2024/01/16 07:09:28;;;;;;;;;13.60;12.60;;;;;4.89;100.00;97470.41;5914218;29;96291;-57
2024/01/16 07:12:32;;;;;;;;;12.60;12.00;;;;;4.96;100.00;97479.16;5913635;29;96280;-56
2024/01/16 07:15:36;;;;;;;;;11.60;10.60;;;;;5.01;100.00;97486.53;5913583;29;96420;-56
2024/01/16 07:18:39;;;;;;;;;12.50;11.00;;;;;4.87;100.00;97480.50;5913653;29;96998;-56
2024/01/16 07:21:46;;;;;;;;;10.00;9.20;;;;;5.03;100.00;97505.81;5914143;29;96584;-56
2024/01/16 07:24:49;;;;;;;;;11.60;10.60;;;;;4.99;100.00;97509.94;5909613;29;97252;-56
2024/01/16 07:27:52;;;;;;;;;9.40;9.00;;;;;5.03;100.00;97511.16;5906442;29;96482;-57
2024/01/16 07:30:56;;;;;;;;;13.00;13.00;;;;;5.15;100.00;97515.56;5905394;29;96292;-57
2024/01/16 07:33:59;;;;;;;;;13.00;12.40;;;;;5.25;100.00;97517.72;5905151;29;96075;-57
2024/01/16 07:37:03;;;;;;;;;11.20;10.20;;;;;5.26;100.00;97529.22;5904887;29;96287;-57
2024/01/16 07:40:09;;;;;;;;;13.00;11.00;;;;;5.35;100.00;97519.88;5907823;29;98636;-57
2024/01/16 07:43:12;;;;;;;;;11.00;11.00;;;;;5.49;100.00;97534.72;5906203;29;96461;-57
2024/01/16 07:46:17;;;;;;;;;11.75;11.00;;;;;5.52;100.00;97537.75;5920456;29;96367;-57
2024/01/16 07:49:20;;;;;;;;;13.00;12.20;;;;;5.54;100.00;97535.69;5906056;29;96299;-57
2024/01/16 07:52:23;;;;;;;;;13.00;11.40;;;;;5.45;100.00;97545.06;5904202;29;96900;-57
2024/01/16 07:55:27;;;;;;;;;13.00;11.60;;;;;5.30;100.00;97547.25;5906100;29;96381;-57
2024/01/16 07:58:30;;;;;;;;;11.80;11.80;;;;;4.94;100.00;97491.91;5919744;29;96702;-57
2024/01/16 08:01:35;;;;;;;;;11.00;10.00;;;;;5.28;100.00;97537.84;5919624;29;98515;-57
2024/01/16 08:04:38;;;;;;;;;11.80;10.80;;;;;5.32;100.00;97552.41;5939306;29;96306;-57
2024/01/16 08:07:43;;;;;;;;;10.25;9.25;;;;;5.33;100.00;97551.34;5926747;29;97760;-57
2024/01/16 08:10:47;;;;;;;;;13.00;12.00;;;;;5.36;100.00;97556.25;5926652;29;97138;-57
2024/01/16 08:13:50;;;;;;;;;13.00;11.60;;;;;5.39;100.00;97574.50;5926913;29;96476;-57
2024/01/16 08:16:54;;;;;;;;;12.20;11.00;;;;;5.30;100.00;97568.63;5928217;29;96485;-57
2024/01/16 08:19:57;;;;;;;;;13.00;11.60;;;;;5.34;100.00;97575.16;5927010;29;96404;-57
2024/01/16 08:23:00;;;;;;;;;12.75;11.50;;;;;5.24;100.00;97578.34;5926299;29;98093;-57
2024/01/16 08:26:04;;;;;;;;;11.00;11.00;;;;;5.22;100.00;97585.78;5928112;29;96383;-57
2024/01/16 08:29:07;;;;;;;;;11.00;10.00;;;;;5.19;100.00;97580.03;5927758;29;96791;-57
2024/01/16 08:32:12;;;;;;;;;10.80;9.80;;;;;5.14;100.00;97586.03;5928040;29;96386;-57
2024/01/16 08:35:15;;;;;;;;;10.60;9.00;;;;;4.95;100.00;97594.22;5941173;29;96323;-56
2024/01/16 08:38:19;;;;;;;;;9.50;9.50;;;;;5.12;100.00;97598.00;5953607;29;96755;-57
2024/01/16 08:41:23;;;;;;;;;13.00;12.00;;;;;5.53;100.00;97618.78;5950601;29;96480;-57
2024/01/16 08:44:26;;;;;;;;;11.80;10.80;;;;;6.14;100.00;97609.94;5932433;29;96287;-57
2024/01/16 08:47:31;;;;;;;;;6.75;6.75;;;;;6.72;100.00;97632.41;5932459;29;96148;-57
2024/01/16 08:50:34;;;;;;;;;9.40;8.40;;;;;7.43;100.00;97628.81;5944440;29;97164;-57
2024/01/16 08:53:37;;;;;;;;;11.40;11.40;;;;;8.09;100.00;97622.28;5925375;29;96335;-57
2024/01/16 08:56:40;;;;;;;;;10.40;9.40;;;;;11.47;100.00;97631.03;5928194;29;96186;-57
2024/01/16 08:59:44;;;;;;;;;10.40;9.00;;;;;12.35;93.79;97642.97;5925391;29;97087;-57
2024/01/16 09:02:49;;;;;;;;;10.40;9.80;;;;;11.76;92.75;97616.19;5920409;29;96339;-57
2024/01/16 09:05:52;;;;;;;;;7.80;7.80;;;;;11.61;94.17;97643.03;5920056;29;96337;-57
2024/01/16 09:08:55;;;;;;;;;7.60;6.60;;;;;12.25;90.45;97659.13;5923428;29;96296;-57
2024/01/16 09:11:59;;;;;;;;;9.00;8.00;;;;;12.13;88.48;97649.34;5934941;29;97427;-57
2024/01/16 09:15:02;;;;;;;;;9.60;9.40;;;;;11.53;88.97;97657.00;5918062;29;96325;-57
2024/01/16 09:18:06;;;;;;;;;8.75;7.75;;;;;10.75;90.41;97650.31;5919253;29;96456;-57
2024/01/16 09:21:10;;;;;;;;;10.00;9.00;;;;;10.35;93.59;97656.03;5919429;29;96289;-57
2024/01/16 09:24:13;;;;;;;;;9.00;6.80;;;;;10.24;93.41;97657.78;5920309;29;96411;-57
2024/01/16 09:27:16;;;;;;;;;7.00;7.00;;;;;10.35;93.48;97650.66;5934488;29;96479;-57
2024/01/16 09:30:22;;;;;;;;;9.00;8.00;;;;;11.92;87.72;97657.59;5920630;29;96301;-57
2024/01/16 09:33:26;;;;;;;;;7.40;7.00;;;;;13.39;77.18;97661.69;5922296;29;96266;-57
2024/01/16 09:36:30;;;;;;;;;9.00;8.00;;;;;13.25;75.68;97655.19;5921019;29;96301;-57
2024/01/16 09:39:34;;;;;;;;;7.40;7.00;;;;;15.00;69.93;97654.34;5922082;29;96370;-57
2024/01/16 09:42:38;;;;;;;;;7.80;7.00;;;;;17.59;61.56;97647.84;5917242;29;96588;-57
2024/01/16 09:45:41;;;;;;;;;9.60;7.00;;;;;18.49;55.26;97628.22;5915788;29;96341;-57
2024/01/16 09:48:47;;;;;;;;;6.00;5.80;;;;;19.40;52.71;97650.88;5916671;29;96471;-57
2024/01/16 09:51:51;;;;;;;;;7.00;6.00;;;;;18.44;51.71;97655.59;5916945;29;96365;-57
2024/01/16 09:54:54;;;;;;;;;5.60;5.00;;;;;18.18;54.24;97653.34;5916089;29;96572;-57
2024/01/16 09:57:59;;;;;;;;;5.00;4.00;;;;;18.11;54.16;97649.41;5915487;29;96234;-57
2024/01/16 10:01:02;;;;;;;;;5.00;5.00;;;;;18.78;51.79;97641.56;5916574;29;96356;-57
2024/01/16 10:04:07;;;;;;;;;5.00;4.40;;;;;18.66;51.99;97660.41;5916435;29;96296;-57
2024/01/16 10:07:13;;;;;;;;;4.00;4.00;;;;;16.79;55.48;97675.06;5916508;29;96329;-57
2024/01/16 10:10:16;;;;;;;;;5.00;4.60;;;;;14.08;75.81;97680.91;5916913;29;96440;-57
2024/01/16 10:13:30;;;;;;;;;6.00;5.00;;;;;12.44;81.84;97673.84;5916579;29;96337;-57
2024/01/16 10:16:58;;;;;;;;;4.80;4.80;;;;;11.01;89.32;97670.25;5916872;29;96400;-57
2024/01/16 10:20:04;;;;;;;;;5.40;5.40;;;;;10.13;91.10;97685.59;5907204;29;96366;-56
2024/01/16 10:23:07;;;;;;;;;6.00;6.00;;;;;9.45;95.47;97685.88;5916487;29;96292;-56
2024/01/16 10:26:11;;;;;;;;;6.80;5.00;;;;;9.22;98.53;97675.25;5915227;29;96283;-56
2024/01/16 10:29:15;;;;;;;;;7.00;5.50;;;;;8.70;99.59;97680.75;5915702;29;96550;-56
2024/01/16 10:32:28;;;;;;;;;5.00;5.00;;;;;8.32;100.00;97683.19;5932881;29;96390;-56
2024/01/16 10:35:33;;;;;;;;;4.25;4.00;;;;;7.97;100.00;97696.59;5914798;29;97529;-56
2024/01/16 10:38:38;;;;;;;;;7.00;6.00;;;;;8.04;100.00;97700.00;5933204;29;96383;-56
2024/01/16 10:41:41;;;;;;;;;5.40;5.00;;;;;7.87;100.00;97702.56;5938508;29;96350;-56
2024/01/16 10:44:54;;;;;;;;;8.00;6.60;;;;;7.86;100.00;97713.53;5915303;29;96318;-56
2024/01/16 10:48:04;;;;;;;;;5.20;5.00;;;;;7.79;100.00;97702.91;5916126;29;96846;-57
2024/01/16 10:51:12;;;;;;;;;8.00;6.50;;;;;7.66;100.00;97706.66;5913820;29;96662;-56
2024/01/16 10:54:15;;;;;;;;;7.00;7.00;;;;;7.70;100.00;97709.66;5915022;29;96711;-56
2024/01/16 10:57:19;;;;;;;;;6.00;6.00;;;;;7.55;100.00;97706.63;5926612;29;96313;-57
2024/01/16 11:00:22;;;;;;;;;8.00;7.00;;;;;7.65;100.00;97709.56;5929958;29;96562;-57
2024/01/16 11:03:35;;;;;;;;;8.00;8.00;;;;;7.54;100.00;97715.69;5943296;29;99102;-57
2024/01/16 11:06:41;;;;;;;;;9.00;7.00;;;;;7.82;100.00;97705.94;5928234;29;99809;-57
2024/01/16 11:09:45;;;;;;;;;10.00;9.60;;;;;7.83;100.00;97707.56;5929491;29;96261;-57
2024/01/16 11:12:50;;;;;;;;;7.00;6.00;;;;;7.90;100.00;97703.97;5929653;29;96222;-57
2024/01/16 11:15:54;;;;;;;;;6.00;6.00;;;;;7.75;100.00;97691.84;5929557;29;96380;-57
2024/01/16 11:18:59;;;;;;;;;5.80;5.00;;;;;7.83;100.00;97707.56;5929799;29;96231;-57
2024/01/16 11:22:25;;;;;;;;;7.00;6.00;;;;;7.86;100.00;97709.00;5928323;29;96328;-57
2024/01/16 11:25:32;;;;;;;;;6.60;5.60;;;;;7.92;100.00;97705.34;5929574;29;96188;-57
2024/01/16 11:28:35;;;;;;;;;6.60;6.60;;;;;7.84;100.00;97713.75;5929603;29;96771;-57
2024/01/16 11:31:38;;;;;;;;;6.00;6.00;;;;;7.91;99.93;97711.78;5929151;29;96258;-57
2024/01/16 11:34:56;;;;;;;;;5.67;5.00;;;;;8.28;98.33;97707.78;5929205;29;96746;-57
2024/01/16 11:38:07;;;;;;;;;6.00;5.40;;;;;8.67;92.83;97695.47;5929537;29;96309;-57
2024/01/16 11:41:10;;;;;;;;;6.00;6.00;;;;;9.12;87.05;97703.59;5927479;29;98430;-57
2024/01/16 11:44:37;;;;;;;;;7.00;7.00;;;;;9.13;84.23;97704.44;5928922;29;96291;-57
2024/01/16 11:47:41;;;;;;;;;6.00;6.00;;;;;9.39;85.32;97716.44;5928832;29;97619;-57
2024/01/16 11:50:44;;;;;;;;;5.00;5.00;;;;;9.47;83.05;97724.13;5927462;29;98388;-57
2024/01/16 11:53:49;;;;;;;;;5.75;5.25;;;;;10.78;81.11;97722.59;5927844;29;96340;-57
2024/01/16 11:57:25;;;;;;;;;6.00;5.00;;;;;12.35;74.32;97724.06;5908879;29;96379;-57
2024/01/16 12:00:32;;;;;;;;;4.00;3.00;;;;;12.08;72.07;97726.84;5925152;29;96504;-57
2024/01/16 12:03:36;;;;;;;;;6.00;6.00;;;;;11.44;73.70;97732.22;5913005;29;96586;-57
2024/01/16 12:06:40;;;;;;;;;5.00;5.00;;;;;10.65;81.83;97739.16;5928578;29;96469;-57
2024/01/16 12:09:44;;;;;;;;;5.00;4.75;;;;;9.98;94.74;97740.03;5921763;29;96392;-57
2024/01/16 12:12:49;;;;;;;;;8.00;7.60;;;;;9.55;97.52;97740.69;5912444;29;96331;-57
2024/01/16 12:16:00;;;;;;;;;9.00;8.00;;;;;11.50;91.91;97733.06;5928400;29;97005;-57
2024/01/16 12:19:07;;;;;;;;;7.00;7.00;;;;;11.59;83.94;97737.75;5928329;29;97084;-57
2024/01/16 12:22:11;;;;;;;;;7.00;7.00;;;;;11.99;81.79;97739.19;5928585;29;96949;-57
2024/01/16 12:25:19;;;;;;;;;7.25;7.00;;;;;11.72;81.95;97733.84;5928354;29;96492;-57
2024/01/16 12:28:23;;;;;;;;;12.40;11.60;;;;;11.17;82.77;97734.91;5914226;29;97339;-57
2024/01/16 12:31:35;;;;;;;;;7.00;7.00;;;;;10.51;86.71;97745.94;5928006;29;96405;-57
2024/01/16 12:34:46;;;;;;;;;8.00;7.00;;;;;9.80;88.94;97745.66;5915266;29;96438;-57
2024/01/16 12:38:00;;;;;;;;;7.20;6.60;;;;;9.21;91.44;97757.00;5928089;29;97330;-57
2024/01/16 12:41:09;;;;;;;;;8.60;8.60;;;;;8.74;94.70;97765.22;5917717;29;96362;-57
2024/01/16 12:44:13;;;;;;;;;7.00;6.40;;;;;8.31;100.00;97772.88;5928113;29;96929;-57
2024/01/16 12:47:21;;;;;;;;;7.60;7.60;;;;;7.58;100.00;97754.41;5927722;29;96627;-57
2024/01/16 12:50:25;;;;;;;;;8.00;7.00;;;;;7.45;100.00;97781.44;5907905;29;96743;-57
2024/01/16 12:53:29;;;;;;;;;9.40;8.60;;;;;7.25;100.00;97787.91;5927687;29;96225;-57
2024/01/16 12:56:33;;;;;;;;;6.00;5.40;;;;;7.08;100.00;97786.91;5927336;29;96310;-57
2024/01/16 12:59:41;;;;;;;;;7.00;7.00;;;;;6.92;100.00;97792.88;5925277;29;96237;-57
2024/01/16 13:02:50;;;;;;;;;7.00;6.00;;;;;6.66;100.00;97795.84;5905292;29;98540;-57
2024/01/16 13:05:56;;;;;;;;;7.00;6.00;;;;;6.57;100.00;97779.28;5926074;29;96438;-57
2024/01/16 13:09:09;;;;;;;;;4.40;4.00;;;;;6.44;100.00;97790.13;5921193;29;96205;-58
2024/01/16 13:12:20;;;;;;;;;5.00;4.00;;;;;6.28;100.00;97775.47;5923873;29;96405;-57
2024/01/16 13:15:24;;;;;;;;;5.80;5.80;;;;;6.24;100.00;97793.00;5926841;29;96433;-57
2024/01/16 13:18:28;;;;;;;;;5.00;4.60;;;;;6.16;100.00;97801.31;5926603;29;96678;-57
2024/01/16 13:21:32;;;;;;;;;5.00;5.00;;;;;6.27;100.00;97805.13;5925887;29;96985;-58
2024/01/16 13:24:35;;;;;;;;;7.00;6.40;;;;;6.49;100.00;97822.41;5919452;29;96424;-57
2024/01/16 13:27:40;;;;;;;;;6.00;6.00;;;;;6.64;100.00;97793.44;5919690;29;96916;-57
2024/01/16 13:30:45;;;;;;;;;6.00;6.00;;;;;7.37;100.00;97822.81;5922689;29;96369;-57
2024/01/16 13:33:50;;;;;;;;;6.00;6.00;;;;;7.82;100.00;97824.00;5919745;29;96414;-57
2024/01/16 13:36:55;;;;;;;;;7.50;6.50;;;;;8.11;100.00;97830.34;5925794;29;97618;-57
2024/01/16 13:40:18;;;;;;;;;6.00;5.00;;;;;8.06;100.00;97832.91;5940796;29;96512;-57
2024/01/16 13:43:26;;;;;;;;;5.00;5.00;;;;;7.87;100.00;97841.28;5926643;29;98633;-57
2024/01/16 13:46:29;;;;;;;;;5.75;5.00;;;;;7.76;100.00;97848.25;5911068;29;96401;-57
2024/01/16 13:49:52;;;;;;;;;7.00;6.00;;;;;7.63;100.00;97862.66;5909065;29;96216;-57
2024/01/16 13:52:56;;;;;;;;;8.00;7.40;;;;;7.42;100.00;97855.13;5921494;29;96520;-57
2024/01/16 13:55:59;;;;;;;;;6.40;6.00;;;;;7.31;100.00;97858.56;5928272;29;98563;-57
2024/01/16 13:59:04;;;;;;;;;4.25;4.25;;;;;7.22;100.00;97867.97;5930445;29;96359;-57
2024/01/16 14:02:08;;;;;;;;;6.75;6.75;;;;;7.19;100.00;97871.91;5929084;29;96165;-57
2024/01/16 14:05:15;;;;;;;;;7.00;7.00;;;;;7.15;100.00;97857.31;5929517;29;96418;-57
2024/01/16 14:08:18;;;;;;;;;8.40;7.40;;;;;7.20;100.00;97875.41;5929183;29;96375;-57
2024/01/16 14:11:21;;;;;;;;;8.00;8.00;;;;;7.14;100.00;97877.09;5927781;29;96929;-57
2024/01/16 14:14:26;;;;;;;;;6.60;6.00;;;;;6.91;100.00;97883.16;5917439;29;96683;-57
2024/01/16 14:17:29;;;;;;;;;11.00;10.40;;;;;6.83;100.00;97888.81;5922185;29;98635;-57
2024/01/16 14:20:33;;;;;;;;;13.20;10.00;;;;;6.67;100.00;97891.25;5920588;29;98047;-57
2024/01/16 14:23:37;;;;;;;;;12.40;11.00;;;;;6.57;100.00;97893.59;5919933;29;96725;-57